Latest Coastal Weather Observations for North Island

IDW60701

Issued at 8:33 pm WST Sunday 9 August 2020 (issued every 10 minutes, with the page automatically refreshed every 10 minutes)

About coastal observations | Map of coastal stations | Coastal observations for WA | Marine services | Other Formats
Station Details ID: 008290 Name: NORTH ISLAND Lat: -28.30 Lon: 113.59 Height: 2.2 m
Data from the previous 72 hours. | See also: Recent months at North Island
Date/Time
WST
Wind Sea
Height
m
Swell Vis
km
Cloud Weather Temp
°C
Press
hPa
Rain since
9am
mm
Dir  Spd
kts
Gust
kts
Height
m
Period
s
Dir
09/08:30pm W 24 31 - - - - - - - 18.2 1004.2 1.2
09/08:00pm W 25 34 - - - - - - - 17.6 1004.2 1.2
09/07:30pm W 28 39 - - - - - - - 17.1 1003.8 1.2
09/07:00pm W 27 37 - - - - - - - 17.7 1003.3 1.0
09/06:40pm WNW 31 41 - - - - - - - 18.3 1003.0 1.0
09/06:30pm W 31 39 - - - - - - - 18.2 1002.9 1.0
09/06:03pm W 28 38 - - - - - - - 17.7 1002.6 1.0
09/06:00pm W 29 38 - - - - - - - 17.7 1002.4 1.0
09/05:30pm WNW 22 33 - - - - - - - 17.2 1002.2 1.0
09/05:00pm W 26 41 - - - - - - - 15.2 1002.4 1.0
09/04:40pm W 31 41 - - - - - - - 16.6 1002.2 0.2
09/04:30pm W 30 40 - - - - - - - 17.2 1001.6 0.2
09/04:27pm WNW 28 40 - - - - - - - 16.9 1001.6 0.2
09/04:00pm WNW 30 41 - - - - - - - 17.8 1001.4 0.2
09/03:30pm NW 27 35 - - - - - - - 19.5 1001.1 0.2
09/03:08pm NW 30 40 - - - - - - - 19.0 1000.9 0.2
09/03:00pm WNW 32 40 - - - - - - - 18.8 1001.1 0.2
09/02:30pm WNW 31 41 - - - - - - - 21.2 1000.7 0.2
09/02:00pm WNW 28 39 - - - - - - - 21.6 1000.5 0.2
09/01:56pm WNW 29 39 - - - - - - - 19.8 1000.4 0.2
09/01:30pm WNW 29 37 - - - - - - - 20.4 1000.6 0.2
09/01:11pm WNW 26 36 - - - - - - - 20.7 1000.6 0.2
09/01:00pm WNW 29 37 - - - - - - - 21.1 1000.8 0.2
09/12:30pm WNW 28 35 - - - - - - - 20.0 1001.2 0.2
09/12:01pm WNW 29 39 - - - - - - - 20.2 1001.5 0.2
09/12:00pm WNW 29 38 - - - - - - Recent precip. 20.2 1001.5 0.2
09/11:33am WNW 26 38 - - - - - - - 19.1 1001.4 0.0
09/11:30am WNW 25 34 - - - - - - - 18.5 1001.4 0.0
09/11:27am WNW 25 35 - - - - - - - 18.7 1001.5 0.0
09/11:00am WNW 29 37 - - - - - - - 19.0 1001.4 0.0
09/10:50am WNW 26 36 - - - - - - - 18.5 1001.5 0.0
09/10:30am W 25 33 - - - - - - - 18.9 1001.7 0.0
09/10:28am W 26 33 - - - - - - - 19.1 1001.8 0.0
09/10:10am WNW 25 37 - - - - - - - 19.3 1002.0 0.0
09/10:00am WNW 24 31 - - - - - - - 19.0 1001.8 0.0
09/09:38am W 28 38 - - - - - - - 18.2 1001.3 0.0
09/09:30am W 31 39 - - - - - - - 17.9 1001.1 0.0
09/09:24am W 27 39 - - - - - - - 18.7 1000.8 0.0
09/09:00am W 26 33 - - - - - - - 18.3 1000.7 25.2
09/08:30am WNW 27 33 - - - - - - - 18.7 1000.3 25.2
09/08:00am W 26 33 - - - - - - - 18.1 1000.4 25.2
09/07:30am WNW 25 33 - - - - - - - 18.4 1000.5 25.0
09/07:00am WNW 26 33 - - - - - - - 18.3 1000.2 24.8
09/06:59am WNW 26 33 - - - - - - - 18.4 1000.2 24.8
09/06:35am WNW 31 46 - - - - - - - 17.6 1000.9 24.8
09/06:33am WNW 30 46 - - - - - - - 17.6 1000.7 24.8
09/06:30am WNW 27 41 - - - - - - - 18.8 1000.6 24.8
09/06:01am WNW 29 39 - - - - - - - 18.6 1000.1 24.8
09/06:00am NW 30 39 - - - - - - Recent precip. 18.5 1000.1 24.8
09/05:54am NW 31 41 - - - - - - - 19.2 1000.1 24.8
09/05:50am NW 31 41 - - - - - - - 19.0 1000.0 24.8
09/05:33am NNW 23 42 - - - - - - - 18.6 1000.5 22.8
09/05:30am NNW 23 31 - - - - - - - 19.9 999.8 22.0
09/05:19am N 25 36 - - - - - - - 19.7 999.3 22.0
09/05:00am N 23 29 - - - - - - - 20.0 1000.0 22.0
09/04:30am N 24 30 - - - - - - - 19.4 1000.3 22.0
09/04:14am N 25 36 - - - - - - - 19.1 1000.5 22.0
09/04:00am N 26 33 - - - - - - - 18.8 1000.7 22.0
09/03:32am NNW 26 36 - - - - - - - 18.4 1001.0 22.0
09/03:30am NNW 27 36 - - - - - - - 18.3 1000.8 22.0
09/03:02am NNW 30 41 - - - - - - - 18.3 1001.4 20.2
09/03:00am NNW 29 41 - - - - - - Rain 18.3 1001.3 20.0
09/02:56am NNW 24 37 - - - - - - - 18.7 1001.3 19.6
09/02:54am NNW 22 35 - - - - - - - 18.8 1001.3 19.2
09/02:36am NNW 32 46 - - - - - - - 18.2 1002.4 14.2
09/02:30am N 38 53 - - - - - - - 18.4 1002.3 10.4
09/02:29am N 39 53 - - - - - - - 18.4 1002.2 9.2
09/02:00am N 37 47 - - - - - - - 18.6 1000.0 6.8
09/01:30am NNE 33 46 - - - - - - - 18.7 1000.9 4.4
09/01:00am NNE 33 45 - - - - - - - 18.5 1001.9 3.8
09/12:30am N 34 45 - - - - - - - 17.9 1002.9 3.8
09/12:00am N 36 46 - - - - - - Recent precip. 17.8 1004.0 2.6
 
Date/Time
WST
Wind Sea
Height
m
Swell Vis
km
Cloud Weather Temp
°C
Press
hPa
Rain since
9am
mm
Dir  Spd
kts
Gust
kts
Height
m
Period
s
Dir
08/11:30pm N 34 46 - - - - - - - 19.0 1004.4 2.2
08/11:27pm N 32 46 - - - - - - - 18.3 1004.4 2.2
08/11:24pm N 30 46 - - - - - - - 18.9 1004.2 2.0
08/11:00pm N 25 35 - - - - - - - 18.9 1005.1 1.8
08/10:57pm N 25 35 - - - - - - - 18.9 1005.4 1.8
08/10:30pm N 26 33 - - - - - - - 19.5 1005.7 1.0
08/10:00pm N 29 39 - - - - - - - 19.6 1006.1 0.4
08/09:34pm N 27 37 - - - - - - - 20.3 1006.3 0.2
08/09:30pm N 30 37 - - - - - - - 19.9 1006.4 0.2
08/09:00pm N 35 45 - - - - - - Rain 21.5 1006.5 0.2
08/08:54pm N 32 43 - - - - - - - 21.3 1006.5 0.2
08/08:51pm N 30 39 - - - - - - - 21.8 1006.5 0.2
08/08:42pm N 24 36 - - - - - - - 22.1 1006.6 0.0
08/08:30pm N 23 30 - - - - - - - 22.1 1006.6 0.0
08/08:00pm NNW 22 30 - - - - - - - 20.9 1006.6 0.0
08/07:30pm N 27 37 - - - - - - - 22.7 1007.3 0.0
08/07:00pm N 25 35 - - - - - - - 22.6 1007.3 0.0
08/06:59pm N 24 35 - - - - - - - 22.5 1007.3 0.0
08/06:30pm NNW 23 31 - - - - - - - 22.5 1007.8 0.0
08/06:00pm NNW 25 32 - - - - - - - 22.5 1007.8 0.0
08/05:30pm NNW 21 28 - - - - - - - 22.5 1007.8 0.0
08/05:00pm N 23 31 - - - - - - - 22.8 1007.3 0.0
08/04:30pm N 26 35 - - - - - - - 23.0 1007.5 0.0
08/04:13pm N 24 37 - - - - - - - 23.1 1007.4 0.0
08/04:00pm N 25 31 - - - - - - - 23.2 1007.7 0.0
08/03:32pm N 23 33 - - - - - - - 24.6 1007.5 0.0
08/03:30pm N 21 30 - - - - - - - 24.7 1007.4 0.0
08/03:00pm N 17 22 - - - - - - - 23.9 1007.6 0.0
08/02:30pm N 18 24 - - - - - - - 24.9 1007.5 0.0
08/02:00pm N 19 24 - - - - - - - 25.0 1007.8 0.0
08/01:30pm N 20 25 - - - - - - - 24.7 1008.7 0.0
08/01:00pm N 19 24 - - - - - - - 24.6 1009.5 0.0
08/12:30pm N 19 24 - - - - - - - 24.2 1010.4 0.0
08/12:00pm NNE 20 28 - - - - - - - 23.8 1011.2 0.0
08/11:30am NNE 18 22 - - - - - - - 22.8 1011.8 0.0
08/11:00am NNE 16 21 - - - - - - - 22.6 1012.1 0.0
08/10:30am NNE 17 20 - - - - - - - 22.8 1012.5 0.0
08/10:00am NNE 18 22 - - - - - - - 21.6 1012.6 0.0
08/09:30am NNE 18 22 - - - - - - - 21.4 1012.8 0.0
08/09:00am NNE 16 20 - - - - - - - 21.1 1013.0 0.0
08/08:30am NNE 17 21 - - - - - - - 20.4 1013.0 0.0
08/08:00am NNE 17 20 - - - - - - - 19.9 1013.2 0.0
08/07:30am NNE 16 20 - - - - - - - 19.2 1013.1 0.0
08/07:00am NNE 15 20 - - - - - - - 19.2 1013.1 0.0
08/06:30am NNE 17 21 - - - - - - - 19.6 1013.0 0.0
08/06:00am NNE 17 22 - - - - - - - 19.7 1013.1 0.0
08/05:30am NNE 17 22 - - - - - - - 19.7 1013.1 0.0
08/05:00am NNE 16 22 - - - - - - - 19.8 1013.2 0.0
08/04:30am NNE 16 20 - - - - - - - 19.9 1013.5 0.0
08/04:00am NNE 16 19 - - - - - - - 20.0 1013.6 0.0
08/03:30am NNE 17 21 - - - - - - - 20.1 1013.8 0.0
08/03:00am NNE 16 20 - - - - - - - 20.1 1014.2 0.0
08/02:30am NNE 16 21 - - - - - - - 20.0 1014.3 0.0
08/02:00am NNE 15 20 - - - - - - - 20.1 1014.6 0.0
08/01:30am NNE 14 20 - - - - - - - 19.9 1014.9 0.0
08/01:00am NNE 14 18 - - - - - - - 19.7 1014.8 0.0
08/12:30am NE 15 19 - - - - - - - 19.8 1014.8 0.0
08/12:00am NE 15 20 - - - - - - - 19.8 1015.0 0.0
 
Date/Time
WST
Wind Sea
Height
m
Swell Vis
km
Cloud Weather Temp
°C
Press
hPa
Rain since
9am
mm
Dir  Spd
kts
Gust
kts
Height
m
Period
s
Dir
07/11:30pm NE 15 20 - - - - - - - 19.8 1015.4 0.0
07/11:00pm NE 14 17 - - - - - - - 20.1 1015.7 0.0
07/10:30pm NE 11 15 - - - - - - - 19.9 1016.0 0.0
07/10:00pm NE 12 15 - - - - - - - 20.1 1016.4 0.0
07/09:30pm NE 8 10 - - - - - - - 19.5 1016.6 0.0
07/09:00pm NE 8 10 - - - - - - - 19.5 1016.6 0.0
07/08:30pm NNE 10 13 - - - - - - - 20.0 1016.7 0.0
07/08:00pm NNE 10 12 - - - - - - - 19.8 1016.5 0.0
07/07:30pm NE 8 10 - - - - - - - 19.3 1016.4 0.0
07/07:00pm NE 9 11 - - - - - - - 19.0 1016.1 0.0
07/06:30pm ENE 10 13 - - - - - - - 18.8 1016.0 0.0
07/06:00pm ENE 11 14 - - - - - - - 19.1 1015.9 0.0
07/05:30pm NE 10 13 - - - - - - - 19.5 1016.0 0.0
07/05:00pm NE 11 15 - - - - - - - 20.8 1015.9 0.0
07/04:30pm NE 14 17 - - - - - - - 20.0 1015.7 0.0
07/04:00pm NE 13 16 - - - - - - - 20.1 1016.1 0.0
07/03:30pm NE 11 13 - - - - - - - 20.3 1016.8 0.0
07/03:00pm NE 10 13 - - - - - - - 19.9 1017.3 0.0
07/02:30pm NE 11 14 - - - - - - - 19.7 1017.8 0.0
07/02:00pm NE 13 17 - - - - - - - 19.5 1017.9 0.0
07/01:30pm NE 15 18 - - - - - - - 18.8 1018.1 0.0
07/01:00pm NE 16 21 - - - - - - - 19.0 1018.7 0.0
07/12:30pm ENE 17 21 - - - - - - - 18.2 1019.0 0.0
07/12:00pm NE 16 20 - - - - - - - 18.3 1019.6 0.0
07/11:30am NE 17 21 - - - - - - - 17.7 1020.1 0.0
07/11:00am NE 17 21 - - - - - - - 17.8 1021.0 0.0
07/10:30am NE 16 20 - - - - - - - 18.1 1021.2 0.0
07/10:00am NE 18 24 - - - - - - - 17.8 1021.0 0.0
07/09:30am NE 18 22 - - - - - - - 17.8 1021.2 0.0
07/09:00am NE 19 23 - - - - - - - 17.4 1020.9 0.0
07/08:30am NE 19 24 - - - - - - - 17.3 1020.8 0.0
07/08:00am ENE 20 25 - - - - - - - 17.3 1020.6 0.0
07/07:30am ENE 19 24 - - - - - - - 17.0 1020.5 0.0
07/07:00am ENE 18 24 - - - - - - - 16.9 1020.4 0.0
07/06:30am ENE 17 22 - - - - - - - 16.7 1020.5 0.0
07/06:00am ENE 19 24 - - - - - - - 16.8 1020.4 0.0
07/05:30am ENE 19 24 - - - - - - - 16.7 1019.7 0.0
07/05:00am ENE 18 23 - - - - - - - 16.9 1019.7 0.0
07/04:30am ENE 17 23 - - - - - - - 16.7 1019.8 0.0
07/04:00am E 17 23 - - - - - - - 16.8 1020.2 0.0
07/03:30am E 17 21 - - - - - - - 16.8 1020.6 0.0
07/03:00am E 16 21 - - - - - - - 16.5 1021.0 0.0
07/02:30am E 17 21 - - - - - - - 16.5 1021.3 0.0
07/02:00am E 17 21 - - - - - - - 16.8 1021.3 0.0
07/01:30am E 17 21 - - - - - - - 16.9 1021.4 0.0
07/01:00am E 17 22 - - - - - - - 16.9 1021.6 0.0
07/12:30am E 17 23 - - - - - - - 17.0 1021.7 0.0
07/12:00am ESE 18 22 - - - - - - - 16.9 1021.8 0.0
 
Date/Time
WST
Wind Sea
Height
m
Swell Vis
km
Cloud Weather Temp
°C
Press
hPa
Rain since
9am
mm
Dir  Spd
kts
Gust
kts
Height
m
Period
s
Dir
06/11:30pm ESE 19 25 - - - - - - - 17.1 1021.9 0.0
06/11:00pm ESE 20 25 - - - - - - - 17.5 1021.9 0.0
06/10:30pm ESE 18 25 - - - - - - - 17.6 1021.9 0.0
06/10:00pm ESE 17 23 - - - - - - - 17.9 1021.7 0.0
06/09:30pm ESE 18 23 - - - - - - - 18.1 1021.4 0.0
06/09:00pm ESE 16 21 - - - - - - - 18.0 1021.3 0.0

Other formats

Comma delimited format used in spreadsheet applications
http://www.bom.gov.au/fwo/IDW60701/IDW60701.94405.axf

JavaScript Object Notation format (JSON) in row-major order
http://www.bom.gov.au/fwo/IDW60701/IDW60701.94405.json

Data quality

Most of these data are generated automatically and are frequently updated. Quality checks on data are not normally performed. It is possible for incorrect values to appear. Refer to information at About Latest Weather Observations and please check the disclaimer before using these data.